createdAt,value
2019-01-05T00:01:12.594Z,69.81
2019-01-05T00:04:13.343Z,69.86
2019-01-05T00:07:09.587Z,69.83
2019-01-05T00:10:08.728Z,69.84
2019-01-05T00:12:57.910Z,70.21
2019-01-05T00:15:44.205Z,69.86
2019-01-05T00:18:33.244Z,69.53
2019-01-05T00:21:40.718Z,69.65
2019-01-05T00:24:28.405Z,69.81
2019-01-05T00:27:22.090Z,69.45
2019-01-05T00:30:10.433Z,69.45
2019-01-05T00:33:01.552Z,69.63
2019-01-05T00:36:26.816Z,69.60
2019-01-05T00:39:29.204Z,70.14
2019-01-05T00:42:22.687Z,70.02
2019-01-05T00:45:31.597Z,69.83
2019-01-05T00:48:30.969Z,70.15
2019-01-05T00:51:22.327Z,69.92
2019-01-05T00:54:25.691Z,69.76
2019-01-05T00:57:15.602Z,70.04
2019-01-05T01:00:15.127Z,69.59
2019-01-05T01:03:14.567Z,69.61
2019-01-05T01:06:14.091Z,69.63
2019-01-05T01:09:06.932Z,70.06
2019-01-05T01:11:55.982Z,69.81
2019-01-05T01:15:01.649Z,69.66
2019-01-05T01:18:04.999Z,69.74
2019-01-05T01:21:10.507Z,69.66
2019-01-05T01:24:13.332Z,69.92
2019-01-05T01:27:02.641Z,69.90
2019-01-05T01:30:07.818Z,69.95
2019-01-05T01:32:56.845Z,69.58
2019-01-05T01:35:56.361Z,69.95
2019-01-05T01:38:42.081Z,69.72
2019-01-05T01:42:02.775Z,69.70
2019-01-05T01:44:53.116Z,69.85
2019-01-05T01:47:43.639Z,70.17
2019-01-05T01:50:33.828Z,69.92
2019-01-05T01:53:30.877Z,69.94
2019-01-05T01:56:34.624Z,70.14
2019-01-05T01:59:28.111Z,70.08
2019-01-05T02:02:36.064Z,69.97
2019-01-05T02:08:29.961Z,70.03
2019-01-05T02:11:15.713Z,69.99
2019-01-05T02:14:22.813Z,70.00
2019-01-05T02:17:49.277Z,70.08
2019-01-05T02:20:52.899Z,69.84
2019-01-05T02:24:14.067Z,69.55
2019-01-05T02:27:56.484Z,69.54
2019-01-05T02:31:11.042Z,69.54
2019-01-05T02:34:48.043Z,69.61
2019-01-05T02:38:40.247Z,69.43
2019-01-05T02:42:36.848Z,69.41
2019-01-05T02:46:10.277Z,69.92
2019-01-05T02:49:53.450Z,69.71
2019-01-05T02:53:47.226Z,69.67
2019-01-05T02:57:18.280Z,69.61
2019-01-05T03:00:38.079Z,69.72
2019-01-05T03:04:26.104Z,70.00
2019-01-05T03:08:27.439Z,69.79
2019-01-05T03:11:52.493Z,69.77
2019-01-05T03:15:23.028Z,69.81
2019-01-05T03:18:59.274Z,69.73
2019-01-05T03:22:40.378Z,69.96
2019-01-05T03:26:11.375Z,69.61
2019-01-05T03:29:42.873Z,69.67
2019-01-05T03:33:14.967Z,69.88
2019-01-05T03:37:03.543Z,70.13
2019-01-05T03:40:42.798Z,70.01
2019-01-05T03:44:28.356Z,70.17
2019-01-05T03:48:21.172Z,70.24
2019-01-05T03:51:54.379Z,70.39
2019-01-05T03:55:29.718Z,70.38
2019-01-05T03:58:56.316Z,70.59
2019-01-05T04:02:21.218Z,70.69
2019-01-05T04:06:04.472Z,70.53
2019-01-05T04:09:44.607Z,70.56
2019-01-05T04:13:14.970Z,70.71
2019-01-05T04:16:45.032Z,70.65
2019-01-05T04:20:30.637Z,70.59
2019-01-05T04:24:19.206Z,70.52
2019-01-05T04:28:01.536Z,70.62
2019-01-05T04:31:50.598Z,70.32
2019-01-05T04:35:16.688Z,70.70
2019-01-05T04:38:31.998Z,70.75
2019-01-05T04:42:03.267Z,70.38
2019-01-05T04:45:17.853Z,70.47
2019-01-05T04:48:56.714Z,70.61
2019-01-05T04:52:26.667Z,70.53
2019-01-05T04:55:43.050Z,70.38
2019-01-05T04:59:25.989Z,70.74
2019-01-05T05:02:47.615Z,70.30
2019-01-05T05:06:26.309Z,70.42
2019-01-05T05:10:07.237Z,70.24
2019-01-05T05:13:38.297Z,70.36
2019-01-05T05:17:08.778Z,70.18
2019-01-05T05:20:32.906Z,70.45
2019-01-05T05:23:44.183Z,70.36
2019-01-05T05:27:05.560Z,70.28
2019-01-05T05:30:47.997Z,70.48
2019-01-05T05:34:26.516Z,70.23
2019-01-05T05:37:58.321Z,70.23
2019-01-05T05:41:41.693Z,70.12
2019-01-05T05:45:13.568Z,70.27
2019-01-05T05:48:55.514Z,70.48
2019-01-05T05:52:21.576Z,70.26
2019-01-05T05:55:37.057Z,69.97
2019-01-05T05:59:29.477Z,70.27
2019-01-05T06:03:05.512Z,70.36
2019-01-05T06:06:30.513Z,70.35
2019-01-05T06:10:08.343Z,70.00
2019-01-05T06:13:49.631Z,69.91
2019-01-05T06:17:42.840Z,69.85
2019-01-05T06:21:35.349Z,70.11
2019-01-05T06:25:11.137Z,69.97
2019-01-05T06:28:27.793Z,69.83
2019-01-05T06:31:51.489Z,69.83
2019-01-05T06:35:26.405Z,69.96
2019-01-05T06:39:10.301Z,69.81
2019-01-05T06:42:52.690Z,69.81
2019-01-05T06:46:28.339Z,69.84
2019-01-05T06:50:17.500Z,70.04
2019-01-05T06:53:39.303Z,69.94
2019-01-05T06:57:01.216Z,69.88
2019-01-05T07:00:43.934Z,70.03
2019-01-05T07:04:16.072Z,69.94
2019-01-05T07:07:54.080Z,70.00
2019-01-05T07:11:39.908Z,70.00
2019-01-05T07:15:18.436Z,69.93
2019-01-05T07:18:47.799Z,70.03
2019-01-05T07:22:34.187Z,69.97
2019-01-05T07:26:32.569Z,70.17
2019-01-05T07:30:07.782Z,70.39
2019-01-05T07:33:35.889Z,70.07
2019-01-05T07:36:49.248Z,70.14
2019-01-05T07:40:35.639Z,70.08
2019-01-05T07:44:07.132Z,70.26
2019-01-05T07:47:22.691Z,70.38
2019-01-05T07:50:50.584Z,70.38
2019-01-05T07:54:15.579Z,70.58
2019-01-05T07:58:04.692Z,70.43
2019-01-05T08:01:27.242Z,70.64
2019-01-05T08:05:07.193Z,70.52
2019-01-05T08:08:38.571Z,70.75
2019-01-05T08:11:54.012Z,70.71
2019-01-05T08:15:20.677Z,70.47
2019-01-05T08:19:01.024Z,70.31
2019-01-05T08:22:27.865Z,70.35
2019-01-05T08:26:12.628Z,70.42
2019-01-05T08:29:47.681Z,70.33
2019-01-05T08:33:21.636Z,70.70
2019-01-05T08:36:54.775Z,70.28
2019-01-05T08:40:29.768Z,70.30
2019-01-05T08:44:28.950Z,70.23
2019-01-05T08:48:02.551Z,70.23
2019-01-05T08:51:40.376Z,70.35
2019-01-05T08:55:16.829Z,70.38
2019-01-05T08:58:57.666Z,70.01
2019-01-05T09:02:27.686Z,70.40
2019-01-05T09:05:52.931Z,70.14
2019-01-05T09:09:09.546Z,69.96
2019-01-05T09:12:37.445Z,69.81
2019-01-05T09:16:06.310Z,69.79
2019-01-05T09:19:46.460Z,69.83
2019-01-05T09:23:23.832Z,69.79
2019-01-05T09:27:25.984Z,69.75
2019-01-05T09:31:09.516Z,69.68
2019-01-05T09:34:42.609Z,69.75
2019-01-05T09:38:17.414Z,69.65
2019-01-05T09:41:58.535Z,69.67
2019-01-05T09:45:23.711Z,69.55
2019-01-05T09:49:09.257Z,69.50
2019-01-05T09:52:41.647Z,69.51
2019-01-05T09:56:13.283Z,69.50
2019-01-05T09:59:53.347Z,69.57
2019-01-05T10:03:34.755Z,69.43
2019-01-05T10:07:26.434Z,69.77
2019-01-05T10:11:15.696Z,69.56
2019-01-05T10:14:49.131Z,69.66
2019-01-05T10:17:59.014Z,69.48
2019-01-05T10:21:15.608Z,69.64
2019-01-05T10:24:56.806Z,69.41
2019-01-05T10:28:31.370Z,69.58
2019-01-05T10:32:09.875Z,69.66
2019-01-05T10:35:37.854Z,69.58
2019-01-05T10:39:03.505Z,69.55
2019-01-05T10:42:32.603Z,69.49
2019-01-05T10:46:06.001Z,69.58
2019-01-05T10:49:36.952Z,69.65
2019-01-05T10:53:32.873Z,69.73
2019-01-05T10:56:54.159Z,69.72
2019-01-05T11:00:44.001Z,69.70
2019-01-05T11:04:11.200Z,69.59
2019-01-05T11:08:06.179Z,69.57
2019-01-05T11:12:02.025Z,69.54
2019-01-05T11:15:27.248Z,69.59
2019-01-05T11:18:41.758Z,69.51
2019-01-05T11:21:58.411Z,69.53
2019-01-05T11:25:20.440Z,69.34
2019-01-05T11:29:00.689Z,69.41
2019-01-05T11:32:09.854Z,69.28
2019-01-05T11:35:24.345Z,69.66
2019-01-05T11:39:16.539Z,69.49
2019-01-05T11:42:43.063Z,69.35
2019-01-05T11:46:12.249Z,69.44
2019-01-05T11:49:38.365Z,69.41
2019-01-05T11:53:10.108Z,69.28
2019-01-05T11:56:30.858Z,69.25
2019-01-05T11:59:49.607Z,69.25
2019-01-05T12:03:32.793Z,69.18
2019-01-05T12:06:57.972Z,69.12
2019-01-05T12:10:36.363Z,69.04
2019-01-05T12:14:01.946Z,69.12
2019-01-05T12:17:26.861Z,69.04
2019-01-05T12:20:59.246Z,69.12
2019-01-05T12:24:39.405Z,69.04
2019-01-05T12:28:05.346Z,69.05
2019-01-05T12:31:37.076Z,68.96
2019-01-05T12:35:25.002Z,68.96
2019-01-05T12:38:55.218Z,68.90
2019-01-05T12:42:33.216Z,68.98
2019-01-05T12:45:54.366Z,68.97
2019-01-05T12:49:12.690Z,69.01
2019-01-05T12:52:40.196Z,69.04
2019-01-05T12:56:30.664Z,69.05
2019-01-05T13:00:06.013Z,68.99
2019-01-05T13:03:39.650Z,68.93
2019-01-05T13:06:59.126Z,68.88
2019-01-05T13:10:40.835Z,68.82
2019-01-05T13:14:17.588Z,68.72
2019-01-05T13:18:00.445Z,68.75
2019-01-05T13:21:35.436Z,68.58
2019-01-05T13:25:33.170Z,68.54
2019-01-05T13:28:59.333Z,68.55
2019-01-05T13:32:24.422Z,68.47
2019-01-05T13:35:29.775Z,68.45
2019-01-05T13:39:01.733Z,68.38
2019-01-05T13:42:36.080Z,68.37
2019-01-05T13:46:38.244Z,68.38
2019-01-05T13:50:09.612Z,68.33
2019-01-05T13:53:23.424Z,68.35
2019-01-05T13:56:22.227Z,68.31
2019-01-05T13:59:12.055Z,68.32
2019-01-05T14:02:21.411Z,68.31
2019-01-05T14:05:14.367Z,68.32
2019-01-05T14:08:23.112Z,68.31
2019-01-05T14:11:12.161Z,68.34
2019-01-05T14:14:01.126Z,68.39
2019-01-05T14:17:03.428Z,68.36
2019-01-05T14:19:53.598Z,68.42
2019-01-05T14:22:42.364Z,68.51
2019-01-05T14:25:31.544Z,68.57
2019-01-05T14:28:31.845Z,68.73
2019-01-05T14:31:21.011Z,68.68
2019-01-05T14:34:11.460Z,68.76
2019-01-05T14:37:04.418Z,68.75
2019-01-05T14:39:52.048Z,68.78
2019-01-05T14:42:54.876Z,68.85
2019-01-05T14:45:46.447Z,68.79
2019-01-05T14:48:35.846Z,68.84
2019-01-05T14:51:26.589Z,68.80
2019-01-05T14:54:17.204Z,68.77
2019-01-05T14:57:06.473Z,68.79
2019-01-05T15:00:02.745Z,68.72
2019-01-05T15:02:54.641Z,68.71
2019-01-05T15:05:45.309Z,68.99
2019-01-05T15:08:35.141Z,68.80
2019-01-05T15:11:24.261Z,68.83
2019-01-05T15:14:12.594Z,68.93
2019-01-05T15:17:02.394Z,68.85
2019-01-05T15:19:53.338Z,68.90
2019-01-05T15:22:42.290Z,68.94
2019-01-05T15:25:35.887Z,68.91
2019-01-05T15:28:32.563Z,68.88
2019-01-05T15:31:32.318Z,68.87
2019-01-05T15:34:42.030Z,68.84
2019-01-05T15:37:31.743Z,68.87
2019-01-05T15:40:26.667Z,68.98
2019-01-05T15:43:16.373Z,68.87
2019-01-05T15:46:09.571Z,68.89
2019-01-05T15:49:14.867Z,68.84
2019-01-05T15:52:14.070Z,68.82
2019-01-05T15:55:04.326Z,68.87
2019-01-05T15:57:53.619Z,68.85
2019-01-05T16:00:42.350Z,68.78
2019-01-05T16:03:32.490Z,68.81
2019-01-05T16:06:22.678Z,68.76
2019-01-05T16:09:11.403Z,68.75
2019-01-05T16:12:00.550Z,68.73
2019-01-05T16:14:49.545Z,68.70
2019-01-05T16:17:48.962Z,68.72
2019-01-05T16:20:37.676Z,68.67
2019-01-05T16:23:46.581Z,68.70
2019-01-05T16:26:36.455Z,68.64
2019-01-05T16:29:17.743Z,68.66
2019-01-05T16:32:06.533Z,68.66
2019-01-05T16:35:00.250Z,68.60
2019-01-05T16:37:48.905Z,68.57
2019-01-05T16:40:42.235Z,68.60
2019-01-05T16:43:31.860Z,68.56
2019-01-05T16:46:21.093Z,68.53
2019-01-05T16:49:20.004Z,68.52
2019-01-05T16:52:09.022Z,68.50
2019-01-05T16:54:58.108Z,68.54
2019-01-05T16:57:47.226Z,68.44
2019-01-05T17:00:36.026Z,68.51
2019-01-05T17:03:31.992Z,68.52
2019-01-05T17:06:22.237Z,68.42
2019-01-05T17:09:21.599Z,68.45
2019-01-05T17:12:14.626Z,68.41
2019-01-05T17:15:03.672Z,68.43
2019-01-05T17:17:55.223Z,68.41
2019-01-05T17:20:51.323Z,68.38
2019-01-05T17:23:40.471Z,68.37
2019-01-05T17:26:29.711Z,68.34
2019-01-05T17:29:33.210Z,68.35
2019-01-05T17:32:38.581Z,68.31
2019-01-05T17:35:27.451Z,68.36
2019-01-05T17:38:20.382Z,68.33
2019-01-05T17:41:09.175Z,68.32
2019-01-05T17:43:58.291Z,68.37
2019-01-05T17:46:39.885Z,68.33
2019-01-05T17:49:30.041Z,68.35
2019-01-05T17:52:19.650Z,68.37
2019-01-05T17:55:19.015Z,68.39
2019-01-05T17:58:21.848Z,68.46
2019-01-05T18:01:11.310Z,68.44
2019-01-05T18:04:04.925Z,68.43
2019-01-05T18:06:51.344Z,68.37
2019-01-05T18:09:41.036Z,68.41
2019-01-05T18:12:34.863Z,68.54
2019-01-05T18:15:25.595Z,68.42
2019-01-05T18:18:15.322Z,68.44
2019-01-05T18:21:08.620Z,68.42
2019-01-05T18:24:14.748Z,68.42
2019-01-05T18:27:12.125Z,68.45
2019-01-05T18:30:08.770Z,68.52
2019-01-05T18:33:06.419Z,68.49
2019-01-05T18:35:55.833Z,68.51
2019-01-05T18:38:53.169Z,68.55
2019-01-05T18:41:54.997Z,68.50
2019-01-05T18:44:45.358Z,68.54
2019-01-05T18:47:42.177Z,68.51
2019-01-05T18:50:31.933Z,68.49
2019-01-05T18:53:31.597Z,68.45
2019-01-05T18:56:22.397Z,68.37
2019-01-05T18:59:11.626Z,68.35
2019-01-05T19:02:14.575Z,68.26
2019-01-05T19:05:03.903Z,68.21
2019-01-05T19:08:01.535Z,68.21
2019-01-05T19:10:59.442Z,68.21
2019-01-05T19:13:57.602Z,68.19
2019-01-05T19:16:50.920Z,68.10
2019-01-05T19:19:53.273Z,68.04
2019-01-05T19:22:46.515Z,67.96
2019-01-05T19:25:32.445Z,67.90
2019-01-05T19:28:28.593Z,67.86
2019-01-05T19:31:18.170Z,67.83
2019-01-05T19:34:20.275Z,67.73
2019-01-05T19:37:13.696Z,67.62
2019-01-05T19:40:08.928Z,67.45
2019-01-05T19:43:03.305Z,67.27
2019-01-05T19:45:52.965Z,67.16
2019-01-05T19:48:42.323Z,67.16
2019-01-05T19:51:43.686Z,67.06
2019-01-05T19:54:50.975Z,67.02
2019-01-05T19:57:53.598Z,66.94
2019-01-05T20:00:42.455Z,66.77
2019-01-05T20:03:46.230Z,66.74
2019-01-05T20:06:35.152Z,66.64
2019-01-05T20:09:35.214Z,66.59
2019-01-05T20:12:33.082Z,66.46
2019-01-05T20:15:28.588Z,66.44
2019-01-05T20:18:37.246Z,66.20
2019-01-05T20:21:30.687Z,66.04
2019-01-05T20:24:19.606Z,66.21
2019-01-05T20:27:18.349Z,66.31
2019-01-05T20:30:14.665Z,66.32
2019-01-05T20:33:07.626Z,66.18
2019-01-05T20:36:06.834Z,66.31
2019-01-05T20:38:56.975Z,66.27
2019-01-05T20:41:46.111Z,66.22
2019-01-05T20:44:35.224Z,66.21
2019-01-05T20:47:24.314Z,66.14
2019-01-05T20:50:20.616Z,66.13
2019-01-05T20:53:10.767Z,66.09
2019-01-05T20:56:14.205Z,66.05
2019-01-05T20:59:03.529Z,65.93
2019-01-05T21:02:12.180Z,65.88
2019-01-05T21:04:58.359Z,65.85
2019-01-05T21:07:57.867Z,65.80
2019-01-05T21:10:57.886Z,65.77
2019-01-05T21:13:51.392Z,65.82
2019-01-05T21:16:42.028Z,65.79
2019-01-05T21:19:44.221Z,65.72
2019-01-05T21:22:45.148Z,65.71
2019-01-05T21:25:36.371Z,65.60
2019-01-05T21:28:32.640Z,65.37
2019-01-05T21:31:25.551Z,65.45
2019-01-05T21:34:09.196Z,65.46
2019-01-05T21:37:02.327Z,65.33
2019-01-05T21:40:01.461Z,65.18
2019-01-05T21:43:09.691Z,65.01
2019-01-05T21:46:15.090Z,65.12
2019-01-05T21:49:14.582Z,65.06
2019-01-05T21:52:04.761Z,64.90
2019-01-05T21:54:57.993Z,64.85
2019-01-05T21:57:48.439Z,64.72
2019-01-05T22:00:37.538Z,64.77
2019-01-05T22:03:26.520Z,64.70
2019-01-05T22:06:19.714Z,64.73
2019-01-05T22:09:25.755Z,64.82
2019-01-05T22:12:14.580Z,64.82
2019-01-05T22:15:03.439Z,64.49
2019-01-05T22:17:59.179Z,64.56
2019-01-05T22:20:55.380Z,64.65
2019-01-05T22:23:44.456Z,64.69
2019-01-05T22:26:46.766Z,64.42
2019-01-05T22:29:35.709Z,64.53
2019-01-05T22:32:25.302Z,64.43
2019-01-05T22:35:15.006Z,64.42
2019-01-05T22:38:03.989Z,64.30
2019-01-05T22:41:06.327Z,64.35
2019-01-05T22:43:56.434Z,64.18
2019-01-05T22:46:45.654Z,64.22
2019-01-05T22:49:47.045Z,64.10
2019-01-05T22:52:37.212Z,64.08
2019-01-05T22:55:28.358Z,64.31
2019-01-05T22:58:34.659Z,64.28
2019-01-05T23:01:33.815Z,64.18
2019-01-05T23:04:22.583Z,64.29
2019-01-05T23:07:24.834Z,64.32
2019-01-05T23:10:33.392Z,64.23
2019-01-05T23:13:35.553Z,64.13
2019-01-05T23:16:24.805Z,64.04
2019-01-05T23:19:18.078Z,63.96
2019-01-05T23:22:16.337Z,63.95
2019-01-05T23:25:01.046Z,63.91
2019-01-05T23:27:46.259Z,64.01
2019-01-05T23:30:51.735Z,64.10
2019-01-05T23:33:47.909Z,64.11
2019-01-05T23:36:43.952Z,64.02
2019-01-05T23:39:33.007Z,64.08
2019-01-05T23:42:32.215Z,63.92
2019-01-05T23:45:29.403Z,63.81
2019-01-05T23:48:18.212Z,63.86
2019-01-05T23:51:07.220Z,63.83
2019-01-05T23:53:56.129Z,63.70
2019-01-05T23:56:45.315Z,63.80
2019-01-05T23:59:33.858Z,63.76
